Time,TemperatureF,DewpointF,PressureIn,WindDirection,WindDirectionDegrees,WindSpeedMPH,WindSpeedGustMPH,Humidity,HourlyPrecipIn,Conditions,Clouds,dailyrainin,SolarRadiationWatts/m^2,SoftwareType,DateUTC
2013-07-18 00:42:00,76.0,27.0,30.06,West,275,15.0,21.0,16,0.00,,,0.00,0.000000,,2013-07-18 07:42:00,
2013-07-18 00:52:00,76.0,27.0,30.06,West,275,15.0,21.0,16,0.00,,,0.00,0.000000,,2013-07-18 07:52:00,
2013-07-18 04:22:00,73.0,27.0,30.04,West,280,11.0,26.0,18,-99.99,,,0.00,0.000000,,2013-07-18 11:22:00,
2013-07-18 04:32:00,73.0,27.0,30.04,West,280,11.0,26.0,18,-99.99,,,0.00,0.000000,,2013-07-18 11:32:00,
2013-07-18 04:43:00,73.0,27.0,30.04,West,280,11.0,26.0,18,-99.99,,,0.00,0.000000,,2013-07-18 11:43:00,
2013-07-18 04:52:00,73.0,27.0,30.04,West,280,11.0,26.0,18,-99.99,,,0.00,0.000000,,2013-07-18 11:52:00,
2013-07-18 06:22:00,72.0,30.0,30.05,West,280,10.0,19.0,21,0.00,,,0.00,0.000000,,2013-07-18 13:22:00,
2013-07-18 06:32:00,72.0,30.0,30.05,West,280,10.0,19.0,21,0.00,,,0.00,0.000000,,2013-07-18 13:32:00,
2013-07-18 06:43:00,72.0,30.0,30.05,West,280,10.0,19.0,21,0.00,,,0.00,0.000000,,2013-07-18 13:43:00,
2013-07-18 06:52:00,72.0,30.0,30.05,West,280,10.0,19.0,21,0.00,,,0.00,0.000000,,2013-07-18 13:52:00,
2013-07-18 07:22:00,75.0,32.0,30.05,NW,304,11.0,14.0,21,-99.99,,,0.00,54.000000,,2013-07-18 14:22:00,
2013-07-18 09:52:00,87.0,38.0,30.07,NW,313,6.0,18.0,18,0.00,,,0.00,498.000000,,2013-07-18 16:52:00,
2013-07-18 11:32:00,95.0,30.0,30.05,North,357,5.0,12.0,10,0.00,,,0.00,849.000000,,2013-07-18 18:32:00,
2013-07-18 11:43:00,95.0,30.0,30.05,North,357,5.0,12.0,10,0.00,,,0.00,849.000000,,2013-07-18 18:43:00,
2013-07-18 11:52:00,95.0,30.0,30.05,North,357,5.0,12.0,10,0.00,,,0.00,849.000000,,2013-07-18 18:52:00,
2013-07-18 16:22:00,102.0,26.0,29.96,SW,218,17.0,24.0,7,0.00,,,0.00,900.000000,,2013-07-18 23:22:00,
2013-07-18 16:32:00,102.0,26.0,29.96,SW,218,17.0,24.0,7,0.00,,,0.00,900.000000,,2013-07-18 23:32:00,
2013-07-18 16:42:00,102.0,26.0,29.96,SW,218,17.0,24.0,7,0.00,,,0.00,900.000000,,2013-07-18 23:42:00,
2013-07-18 16:52:00,102.0,26.0,29.96,SW,218,17.0,24.0,7,0.00,,,0.00,900.000000,,2013-07-18 23:52:00,
2013-07-18 19:22:00,87.0,38.0,29.95,West,281,23.0,30.0,18,0.00,,,0.00,273.000000,,2013-07-19 02:22:00,
2013-07-18 19:32:00,87.0,38.0,29.95,West,281,23.0,30.0,18,0.00,,,0.00,273.000000,,2013-07-19 02:32:00,
2013-07-18 19:42:00,87.0,38.0,29.95,West,281,23.0,30.0,18,0.00,,,0.00,273.000000,,2013-07-19 02:42:00,
2013-07-18 19:52:00,87.0,38.0,29.95,West,281,23.0,30.0,18,0.00,,,0.00,273.000000,,2013-07-19 02:52:00,
2013-07-18 20:22:00,83.0,39.0,29.97,West,270,16.0,31.0,21,0.00,,,0.00,71.000000,,2013-07-19 03:22:00,
2013-07-18 20:32:00,83.0,39.0,29.97,West,270,16.0,31.0,21,0.00,,,0.00,71.000000,,2013-07-19 03:32:00,
2013-07-18 20:42:00,83.0,39.0,29.97,West,270,16.0,31.0,21,0.00,,,0.00,71.000000,,2013-07-19 03:42:00,
2013-07-18 20:52:00,83.0,39.0,29.97,West,270,16.0,31.0,21,0.00,,,0.00,71.000000,,2013-07-19 03:52:00,
2013-07-18 21:43:00,79.0,38.0,29.99,WSW,256,10.0,27.0,23,0.00,,,0.00,1.000000,,2013-07-19 04:43:00,
2013-07-18 21:52:00,79.0,38.0,29.99,WSW,256,10.0,27.0,23,0.00,,,0.00,1.000000,,2013-07-19 04:52:00,
2013-07-18 22:32:00,79.0,34.0,29.99,WSW,254,9.0,23.0,20,0.00,,,0.00,0.000000,,2013-07-19 05:32:00,
2013-07-18 22:42:00,79.0,34.0,29.99,WSW,254,9.0,23.0,20,0.00,,,0.00,0.000000,,2013-07-19 05:42:00,
2013-07-18 22:52:00,79.0,34.0,29.99,WSW,254,9.0,23.0,20,0.00,,,0.00,0.000000,,2013-07-19 05:52:00,
2013-07-18 23:22:00,80.0,33.0,29.99,West,269,14.0,21.0,18,0.00,,,0.00,0.000000,,2013-07-19 06:22:00,
2013-07-18 23:32:00,80.0,33.0,29.99,West,269,14.0,21.0,18,0.00,,,0.00,0.000000,,2013-07-19 06:32:00,
2013-07-18 23:43:00,80.0,33.0,29.99,West,269,14.0,21.0,18,0.00,,,0.00,0.000000,,2013-07-19 06:43:00,
2013-07-18 23:52:00,80.0,33.0,29.99,West,269,14.0,21.0,18,0.00,,,0.00,0.000000,,2013-07-19 06:52:00,